sensor_id;sensor_type;location;lat;lon;timestamp;P1;durP1;ratioP1;P2;durP2;ratioP2
13999;SDS011;7075;53.574;10.054;2022-10-15T00:01:39;104.13;;;98.30;;
13999;SDS011;7075;53.574;10.054;2022-10-15T00:04:04;108.23;;;101.83;;
13999;SDS011;7075;53.574;10.054;2022-10-15T00:06:30;111.07;;;104.50;;
13999;SDS011;7075;53.574;10.054;2022-10-15T00:08:56;111.55;;;104.97;;
13999;SDS011;7075;53.574;10.054;2022-10-15T00:11:23;120.10;;;113.10;;
13999;SDS011;7075;53.574;10.054;2022-10-15T00:13:53;121.63;;;114.63;;
13999;SDS011;7075;53.574;10.054;2022-10-15T00:16:25;121.75;;;114.53;;
13999;SDS011;7075;53.574;10.054;2022-10-15T00:18:56;116.95;;;110.05;;
13999;SDS011;7075;53.574;10.054;2022-10-15T00:21:23;107.32;;;100.97;;
13999;SDS011;7075;53.574;10.054;2022-10-15T00:23:59;106.93;;;100.78;;
13999;SDS011;7075;53.574;10.054;2022-10-15T00:26:25;104.43;;;98.20;;
13999;SDS011;7075;53.574;10.054;2022-10-15T00:28:59;102.50;;;96.60;;
13999;SDS011;7075;53.574;10.054;2022-10-15T00:31:27;103.60;;;97.65;;
13999;SDS011;7075;53.574;10.054;2022-10-15T00:33:58;105.10;;;98.88;;
13999;SDS011;7075;53.574;10.054;2022-10-15T00:36:26;112.27;;;105.77;;
13999;SDS011;7075;53.574;10.054;2022-10-15T00:38:53;124.25;;;116.85;;
13999;SDS011;7075;53.574;10.054;2022-10-15T00:41:30;116.47;;;109.45;;
13999;SDS011;7075;53.574;10.054;2022-10-15T00:43:59;110.57;;;103.90;;
13999;SDS011;7075;53.574;10.054;2022-10-15T00:46:33;105.30;;;99.15;;
13999;SDS011;7075;53.574;10.054;2022-10-15T00:49:16;114.78;;;107.97;;
13999;SDS011;7075;53.574;10.054;2022-10-15T00:52:03;114.10;;;107.35;;
13999;SDS011;7075;53.574;10.054;2022-10-15T00:54:37;116.05;;;109.20;;
13999;SDS011;7075;53.574;10.054;2022-10-15T00:57:06;123.85;;;116.63;;
13999;SDS011;7075;53.574;10.054;2022-10-15T00:59:33;131.07;;;123.40;;
13999;SDS011;7075;53.574;10.054;2022-10-15T01:02:03;132.60;;;124.63;;
13999;SDS011;7075;53.574;10.054;2022-10-15T01:04:30;137.80;;;129.63;;
13999;SDS011;7075;53.574;10.054;2022-10-15T01:06:57;141.68;;;133.48;;
13999;SDS011;7075;53.574;10.054;2022-10-15T01:09:22;145.38;;;136.82;;
13999;SDS011;7075;53.574;10.054;2022-10-15T01:11:52;152.07;;;142.85;;
13999;SDS011;7075;53.574;10.054;2022-10-15T01:17:15;148.82;;;139.80;;
13999;SDS011;7075;53.574;10.054;2022-10-15T01:19:59;156.32;;;146.43;;
13999;SDS011;7075;53.574;10.054;2022-10-15T01:28:18;146.18;;;136.88;;
13999;SDS011;7075;53.574;10.054;2022-10-15T01:31:01;145.50;;;136.27;;
13999;SDS011;7075;53.574;10.054;2022-10-15T01:33:58;151.93;;;142.27;;
13999;SDS011;7075;53.574;10.054;2022-10-15T01:36:31;150.32;;;140.75;;
13999;SDS011;7075;53.574;10.054;2022-10-15T01:39:11;152.75;;;142.95;;
13999;SDS011;7075;53.574;10.054;2022-10-15T01:41:43;144.90;;;135.82;;
13999;SDS011;7075;53.574;10.054;2022-10-15T01:46:58;156.60;;;146.75;;
13999;SDS011;7075;53.574;10.054;2022-10-15T01:49:29;148.32;;;138.85;;
13999;SDS011;7075;53.574;10.054;2022-10-15T01:51:59;152.17;;;142.57;;
13999;SDS011;7075;53.574;10.054;2022-10-15T01:54:28;157.32;;;147.10;;
13999;SDS011;7075;53.574;10.054;2022-10-15T01:56:55;148.85;;;139.30;;
13999;SDS011;7075;53.574;10.054;2022-10-15T01:59:22;150.77;;;141.10;;
13999;SDS011;7075;53.574;10.054;2022-10-15T02:01:53;157.77;;;147.73;;
13999;SDS011;7075;53.574;10.054;2022-10-15T02:04:19;152.85;;;143.15;;
13999;SDS011;7075;53.574;10.054;2022-10-15T02:06:49;157.32;;;147.45;;
13999;SDS011;7075;53.574;10.054;2022-10-15T02:17:56;154.75;;;144.85;;
13999;SDS011;7075;53.574;10.054;2022-10-15T02:23:21;154.90;;;145.20;;
13999;SDS011;7075;53.574;10.054;2022-10-15T02:25:54;152.18;;;142.68;;
13999;SDS011;7075;53.574;10.054;2022-10-15T02:28:22;152.93;;;143.18;;
13999;SDS011;7075;53.574;10.054;2022-10-15T02:30:49;154.27;;;144.25;;
13999;SDS011;7075;53.574;10.054;2022-10-15T02:33:17;159.27;;;149.00;;
13999;SDS011;7075;53.574;10.054;2022-10-15T02:35:44;161.20;;;150.90;;
13999;SDS011;7075;53.574;10.054;2022-10-15T02:38:14;157.85;;;147.85;;
13999;SDS011;7075;53.574;10.054;2022-10-15T02:40:43;149.93;;;140.10;;
13999;SDS011;7075;53.574;10.054;2022-10-15T02:43:11;148.00;;;138.43;;
13999;SDS011;7075;53.574;10.054;2022-10-15T02:45:38;151.40;;;141.57;;
13999;SDS011;7075;53.574;10.054;2022-10-15T02:48:04;150.87;;;141.03;;
13999;SDS011;7075;53.574;10.054;2022-10-15T02:50:30;149.30;;;139.75;;
13999;SDS011;7075;53.574;10.054;2022-10-15T02:52:55;149.82;;;140.23;;
13999;SDS011;7075;53.574;10.054;2022-10-15T02:55:21;153.03;;;143.20;;
13999;SDS011;7075;53.574;10.054;2022-10-15T02:57:47;155.70;;;145.67;;
13999;SDS011;7075;53.574;10.054;2022-10-15T03:00:12;148.43;;;138.82;;
13999;SDS011;7075;53.574;10.054;2022-10-15T03:02:38;147.60;;;138.15;;
13999;SDS011;7075;53.574;10.054;2022-10-15T03:05:04;154.38;;;144.48;;
13999;SDS011;7075;53.574;10.054;2022-10-15T03:07:30;158.00;;;147.95;;
13999;SDS011;7075;53.574;10.054;2022-10-15T03:09:55;162.80;;;152.60;;
13999;SDS011;7075;53.574;10.054;2022-10-15T03:12:21;164.93;;;154.43;;
13999;SDS011;7075;53.574;10.054;2022-10-15T03:14:47;173.45;;;162.63;;
13999;SDS011;7075;53.574;10.054;2022-10-15T03:17:13;180.82;;;169.63;;
13999;SDS011;7075;53.574;10.054;2022-10-15T03:19:39;170.48;;;160.02;;
13999;SDS011;7075;53.574;10.054;2022-10-15T03:22:05;155.17;;;145.77;;
13999;SDS011;7075;53.574;10.054;2022-10-15T03:24:30;168.87;;;158.57;;
13999;SDS011;7075;53.574;10.054;2022-10-15T03:26:56;155.15;;;145.95;;
13999;SDS011;7075;53.574;10.054;2022-10-15T03:29:22;142.90;;;134.40;;
13999;SDS011;7075;53.574;10.054;2022-10-15T03:31:47;140.87;;;132.40;;
13999;SDS011;7075;53.574;10.054;2022-10-15T03:34:13;139.02;;;130.95;;
13999;SDS011;7075;53.574;10.054;2022-10-15T03:36:38;136.33;;;128.10;;
13999;SDS011;7075;53.574;10.054;2022-10-15T03:39:04;135.67;;;127.67;;
13999;SDS011;7075;53.574;10.054;2022-10-15T03:41:30;135.57;;;127.32;;
13999;SDS011;7075;53.574;10.054;2022-10-15T03:44:05;141.05;;;132.40;;
13999;SDS011;7075;53.574;10.054;2022-10-15T03:46:32;138.13;;;129.70;;
13999;SDS011;7075;53.574;10.054;2022-10-15T03:48:58;136.55;;;128.10;;
13999;SDS011;7075;53.574;10.054;2022-10-15T03:51:24;135.23;;;127.03;;
13999;SDS011;7075;53.574;10.054;2022-10-15T03:53:49;135.32;;;127.22;;
13999;SDS011;7075;53.574;10.054;2022-10-15T03:56:15;140.97;;;132.07;;
13999;SDS011;7075;53.574;10.054;2022-10-15T03:58:40;146.03;;;136.90;;
13999;SDS011;7075;53.574;10.054;2022-10-15T04:01:10;144.63;;;135.52;;
13999;SDS011;7075;53.574;10.054;2022-10-15T04:03:37;152.43;;;142.87;;
13999;SDS011;7075;53.574;10.054;2022-10-15T04:06:03;146.05;;;137.05;;
13999;SDS011;7075;53.574;10.054;2022-10-15T04:08:28;145.98;;;136.75;;
13999;SDS011;7075;53.574;10.054;2022-10-15T04:10:54;138.07;;;129.47;;
13999;SDS011;7075;53.574;10.054;2022-10-15T04:13:19;142.75;;;134.05;;
13999;SDS011;7075;53.574;10.054;2022-10-15T04:15:45;137.63;;;129.10;;
13999;SDS011;7075;53.574;10.054;2022-10-15T04:18:10;139.23;;;130.17;;
13999;SDS011;7075;53.574;10.054;2022-10-15T04:20:36;148.75;;;139.50;;
13999;SDS011;7075;53.574;10.054;2022-10-15T04:23:02;149.18;;;139.65;;
13999;SDS011;7075;53.574;10.054;2022-10-15T04:25:28;155.83;;;146.00;;
13999;SDS011;7075;53.574;10.054;2022-10-15T04:27:53;148.00;;;138.70;;
13999;SDS011;7075;53.574;10.054;2022-10-15T04:30:20;149.52;;;140.00;;
13999;SDS011;7075;53.574;10.054;2022-10-15T04:32:46;157.18;;;147.38;;
13999;SDS011;7075;53.574;10.054;2022-10-15T04:35:11;151.10;;;141.33;;
13999;SDS011;7075;53.574;10.054;2022-10-15T04:37:37;149.57;;;139.87;;
13999;SDS011;7075;53.574;10.054;2022-10-15T04:40:03;152.60;;;142.83;;
13999;SDS011;7075;53.574;10.054;2022-10-15T04:42:29;156.40;;;146.60;;
13999;SDS011;7075;53.574;10.054;2022-10-15T04:44:55;154.52;;;144.48;;
13999;SDS011;7075;53.574;10.054;2022-10-15T04:47:21;160.10;;;149.68;;
13999;SDS011;7075;53.574;10.054;2022-10-15T04:49:47;154.85;;;144.90;;
13999;SDS011;7075;53.574;10.054;2022-10-15T04:52:13;157.00;;;146.87;;
13999;SDS011;7075;53.574;10.054;2022-10-15T04:54:39;163.60;;;152.80;;
13999;SDS011;7075;53.574;10.054;2022-10-15T04:57:04;164.13;;;152.82;;
13999;SDS011;7075;53.574;10.054;2022-10-15T04:59:30;164.20;;;153.18;;
13999;SDS011;7075;53.574;10.054;2022-10-15T05:01:56;159.70;;;149.25;;
13999;SDS011;7075;53.574;10.054;2022-10-15T05:04:21;157.87;;;147.43;;
13999;SDS011;7075;53.574;10.054;2022-10-15T05:06:47;156.53;;;146.20;;
13999;SDS011;7075;53.574;10.054;2022-10-15T05:09:12;162.18;;;151.23;;
13999;SDS011;7075;53.574;10.054;2022-10-15T05:11:38;161.70;;;150.67;;
13999;SDS011;7075;53.574;10.054;2022-10-15T05:14:04;157.60;;;147.10;;
13999;SDS011;7075;53.574;10.054;2022-10-15T05:16:30;160.73;;;149.85;;
13999;SDS011;7075;53.574;10.054;2022-10-15T05:18:57;165.05;;;153.98;;
13999;SDS011;7075;53.574;10.054;2022-10-15T05:21:25;163.68;;;152.57;;
13999;SDS011;7075;53.574;10.054;2022-10-15T05:23:51;157.52;;;146.93;;
13999;SDS011;7075;53.574;10.054;2022-10-15T05:26:18;155.63;;;145.43;;
13999;SDS011;7075;53.574;10.054;2022-10-15T05:28:45;157.80;;;147.35;;
13999;SDS011;7075;53.574;10.054;2022-10-15T05:31:13;162.48;;;151.48;;
13999;SDS011;7075;53.574;10.054;2022-10-15T05:33:40;155.40;;;145.07;;
13999;SDS011;7075;53.574;10.054;2022-10-15T05:36:07;154.13;;;143.73;;
13999;SDS011;7075;53.574;10.054;2022-10-15T05:38:52;155.82;;;145.10;;
13999;SDS011;7075;53.574;10.054;2022-10-15T05:41:23;156.48;;;145.77;;
13999;SDS011;7075;53.574;10.054;2022-10-15T05:43:50;155.75;;;145.05;;
13999;SDS011;7075;53.574;10.054;2022-10-15T05:46:17;160.40;;;149.57;;
13999;SDS011;7075;53.574;10.054;2022-10-15T05:48:50;150.63;;;140.15;;
13999;SDS011;7075;53.574;10.054;2022-10-15T05:51:17;153.73;;;143.33;;
13999;SDS011;7075;53.574;10.054;2022-10-15T05:53:43;153.45;;;142.85;;
13999;SDS011;7075;53.574;10.054;2022-10-15T05:56:10;150.73;;;140.30;;
13999;SDS011;7075;53.574;10.054;2022-10-15T05:58:36;146.63;;;136.37;;
13999;SDS011;7075;53.574;10.054;2022-10-15T06:01:02;146.27;;;136.17;;
13999;SDS011;7075;53.574;10.054;2022-10-15T06:03:30;144.82;;;134.52;;
13999;SDS011;7075;53.574;10.054;2022-10-15T06:05:55;140.35;;;130.93;;
13999;SDS011;7075;53.574;10.054;2022-10-15T06:08:21;116.97;;;108.55;;
13999;SDS011;7075;53.574;10.054;2022-10-15T06:10:47;118.88;;;110.18;;
13999;SDS011;7075;53.574;10.054;2022-10-15T06:13:13;112.37;;;103.87;;
13999;SDS011;7075;53.574;10.054;2022-10-15T06:15:43;112.07;;;103.68;;
13999;SDS011;7075;53.574;10.054;2022-10-15T06:18:10;114.07;;;105.32;;
13999;SDS011;7075;53.574;10.054;2022-10-15T06:20:36;111.53;;;103.07;;
13999;SDS011;7075;53.574;10.054;2022-10-15T06:23:02;111.45;;;102.85;;
13999;SDS011;7075;53.574;10.054;2022-10-15T06:25:29;106.00;;;97.93;;
13999;SDS011;7075;53.574;10.054;2022-10-15T06:27:59;104.60;;;96.60;;
13999;SDS011;7075;53.574;10.054;2022-10-15T06:30:26;106.50;;;98.32;;
13999;SDS011;7075;53.574;10.054;2022-10-15T06:32:52;106.17;;;98.30;;
13999;SDS011;7075;53.574;10.054;2022-10-15T06:35:18;109.83;;;101.63;;
13999;SDS011;7075;53.574;10.054;2022-10-15T06:37:45;108.07;;;100.00;;
13999;SDS011;7075;53.574;10.054;2022-10-15T06:40:11;111.03;;;102.55;;
13999;SDS011;7075;53.574;10.054;2022-10-15T06:42:38;114.10;;;105.63;;
13999;SDS011;7075;53.574;10.054;2022-10-15T06:45:04;113.22;;;104.72;;
13999;SDS011;7075;53.574;10.054;2022-10-15T06:47:30;113.13;;;104.47;;
13999;SDS011;7075;53.574;10.054;2022-10-15T06:49:56;113.72;;;105.20;;
13999;SDS011;7075;53.574;10.054;2022-10-15T06:52:22;111.27;;;103.00;;
13999;SDS011;7075;53.574;10.054;2022-10-15T06:54:50;104.10;;;96.20;;
13999;SDS011;7075;53.574;10.054;2022-10-15T06:57:16;111.00;;;102.57;;
13999;SDS011;7075;53.574;10.054;2022-10-15T06:59:41;104.80;;;96.73;;
13999;SDS011;7075;53.574;10.054;2022-10-15T07:02:10;107.72;;;99.25;;
13999;SDS011;7075;53.574;10.054;2022-10-15T07:04:38;108.47;;;100.53;;
13999;SDS011;7075;53.574;10.054;2022-10-15T07:07:04;117.60;;;108.93;;
13999;SDS011;7075;53.574;10.054;2022-10-15T07:09:29;116.93;;;108.10;;
13999;SDS011;7075;53.574;10.054;2022-10-15T07:11:55;113.23;;;104.57;;
13999;SDS011;7075;53.574;10.054;2022-10-15T07:14:21;115.93;;;107.30;;
13999;SDS011;7075;53.574;10.054;2022-10-15T07:16:47;113.00;;;104.85;;
13999;SDS011;7075;53.574;10.054;2022-10-15T07:19:12;116.32;;;107.80;;
13999;SDS011;7075;53.574;10.054;2022-10-15T07:21:38;113.85;;;105.50;;
13999;SDS011;7075;53.574;10.054;2022-10-15T07:24:04;110.23;;;102.27;;
13999;SDS011;7075;53.574;10.054;2022-10-15T07:26:30;114.78;;;106.50;;
13999;SDS011;7075;53.574;10.054;2022-10-15T07:28:56;108.77;;;100.57;;
13999;SDS011;7075;53.574;10.054;2022-10-15T07:31:21;109.15;;;101.35;;
13999;SDS011;7075;53.574;10.054;2022-10-15T07:33:47;106.90;;;98.90;;
13999;SDS011;7075;53.574;10.054;2022-10-15T07:36:13;106.50;;;98.63;;
13999;SDS011;7075;53.574;10.054;2022-10-15T07:38:39;103.28;;;96.07;;
13999;SDS011;7075;53.574;10.054;2022-10-15T07:41:05;109.97;;;102.00;;
13999;SDS011;7075;53.574;10.054;2022-10-15T07:43:32;107.93;;;99.78;;
13999;SDS011;7075;53.574;10.054;2022-10-15T07:45:58;104.90;;;97.15;;
13999;SDS011;7075;53.574;10.054;2022-10-15T07:48:24;104.05;;;96.38;;
13999;SDS011;7075;53.574;10.054;2022-10-15T07:50:54;102.20;;;94.80;;
13999;SDS011;7075;53.574;10.054;2022-10-15T07:53:24;103.55;;;95.93;;
13999;SDS011;7075;53.574;10.054;2022-10-15T07:55:50;113.88;;;105.75;;
13999;SDS011;7075;53.574;10.054;2022-10-15T07:58:16;111.63;;;103.53;;
13999;SDS011;7075;53.574;10.054;2022-10-15T08:00:41;106.35;;;98.50;;
13999;SDS011;7075;53.574;10.054;2022-10-15T08:03:07;107.13;;;99.43;;
13999;SDS011;7075;53.574;10.054;2022-10-15T08:05:33;106.97;;;99.30;;
13999;SDS011;7075;53.574;10.054;2022-10-15T08:07:58;110.53;;;102.67;;
13999;SDS011;7075;53.574;10.054;2022-10-15T08:10:24;109.50;;;101.60;;
13999;SDS011;7075;53.574;10.054;2022-10-15T08:12:50;107.63;;;99.87;;
13999;SDS011;7075;53.574;10.054;2022-10-15T08:15:16;111.83;;;103.93;;
13999;SDS011;7075;53.574;10.054;2022-10-15T08:17:41;107.73;;;99.70;;
13999;SDS011;7075;53.574;10.054;2022-10-15T08:20:07;110.28;;;102.43;;
13999;SDS011;7075;53.574;10.054;2022-10-15T08:22:33;111.57;;;103.60;;
13999;SDS011;7075;53.574;10.054;2022-10-15T08:24:59;110.80;;;103.00;;
13999;SDS011;7075;53.574;10.054;2022-10-15T08:27:24;111.97;;;104.23;;
13999;SDS011;7075;53.574;10.054;2022-10-15T08:29:50;112.43;;;104.32;;
13999;SDS011;7075;53.574;10.054;2022-10-15T08:32:16;109.57;;;101.72;;
13999;SDS011;7075;53.574;10.054;2022-10-15T08:34:42;107.95;;;100.20;;
13999;SDS011;7075;53.574;10.054;2022-10-15T08:37:07;106.70;;;99.20;;
13999;SDS011;7075;53.574;10.054;2022-10-15T08:39:33;105.93;;;98.50;;
13999;SDS011;7075;53.574;10.054;2022-10-15T08:45:34;96.32;;;89.45;;
13999;SDS011;7075;53.574;10.054;2022-10-15T08:47:47;99.40;;;92.50;;
13999;SDS011;7075;53.574;10.054;2022-10-15T08:52:51;97.97;;;91.20;;
13999;SDS011;7075;53.574;10.054;2022-10-15T08:55:20;92.40;;;85.78;;
13999;SDS011;7075;53.574;10.054;2022-10-15T09:00:29;88.93;;;82.68;;
13999;SDS011;7075;53.574;10.054;2022-10-15T09:06:13;89.68;;;83.00;;
13999;SDS011;7075;53.574;10.054;2022-10-15T09:11:36;89.72;;;83.13;;
13999;SDS011;7075;53.574;10.054;2022-10-15T09:14:22;84.95;;;78.80;;
13999;SDS011;7075;53.574;10.054;2022-10-15T09:17:39;89.55;;;83.20;;
13999;SDS011;7075;53.574;10.054;2022-10-15T09:20:01;89.07;;;82.57;;
13999;SDS011;7075;53.574;10.054;2022-10-15T09:22:30;85.35;;;79.45;;
13999;SDS011;7075;53.574;10.054;2022-10-15T09:24:57;83.35;;;77.40;;
13999;SDS011;7075;53.574;10.054;2022-10-15T09:27:31;79.10;;;73.90;;
13999;SDS011;7075;53.574;10.054;2022-10-15T09:32:42;80.70;;;75.32;;
13999;SDS011;7075;53.574;10.054;2022-10-15T09:35:14;83.43;;;77.82;;
13999;SDS011;7075;53.574;10.054;2022-10-15T09:40:28;82.07;;;75.97;;
13999;SDS011;7075;53.574;10.054;2022-10-15T09:43:15;81.45;;;75.70;;
13999;SDS011;7075;53.574;10.054;2022-10-15T09:45:51;83.13;;;77.18;;
13999;SDS011;7075;53.574;10.054;2022-10-15T09:48:17;78.32;;;73.25;;
13999;SDS011;7075;53.574;10.054;2022-10-15T09:50:54;84.47;;;78.68;;
13999;SDS011;7075;53.574;10.054;2022-10-15T09:53:29;75.50;;;70.55;;
13999;SDS011;7075;53.574;10.054;2022-10-15T09:56:21;75.90;;;70.55;;
13999;SDS011;7075;53.574;10.054;2022-10-15T09:58:51;76.03;;;70.85;;
13999;SDS011;7075;53.574;10.054;2022-10-15T10:03:49;76.45;;;71.50;;
13999;SDS011;7075;53.574;10.054;2022-10-15T10:06:19;83.93;;;78.35;;
13999;SDS011;7075;53.574;10.054;2022-10-15T10:08:56;81.43;;;75.70;;
13999;SDS011;7075;53.574;10.054;2022-10-15T10:11:24;78.90;;;73.70;;
13999;SDS011;7075;53.574;10.054;2022-10-15T10:13:57;77.35;;;72.35;;
13999;SDS011;7075;53.574;10.054;2022-10-15T10:16:25;91.82;;;85.95;;
13999;SDS011;7075;53.574;10.054;2022-10-15T10:19:03;107.50;;;100.80;;
13999;SDS011;7075;53.574;10.054;2022-10-15T10:21:34;101.93;;;95.57;;
13999;SDS011;7075;53.574;10.054;2022-10-15T10:24:19;103.05;;;96.65;;
13999;SDS011;7075;53.574;10.054;2022-10-15T10:26:54;104.20;;;97.72;;
13999;SDS011;7075;53.574;10.054;2022-10-15T10:29:21;98.43;;;92.43;;
13999;SDS011;7075;53.574;10.054;2022-10-15T10:31:47;105.05;;;98.53;;
13999;SDS011;7075;53.574;10.054;2022-10-15T10:34:17;103.55;;;97.05;;
13999;SDS011;7075;53.574;10.054;2022-10-15T10:36:51;100.07;;;93.40;;
13999;SDS011;7075;53.574;10.054;2022-10-15T10:39:25;108.07;;;101.60;;
13999;SDS011;7075;53.574;10.054;2022-10-15T10:41:59;110.17;;;103.67;;
13999;SDS011;7075;53.574;10.054;2022-10-15T10:44:32;102.95;;;96.53;;
13999;SDS011;7075;53.574;10.054;2022-10-15T10:47:18;97.35;;;91.20;;
13999;SDS011;7075;53.574;10.054;2022-10-15T10:54:52;76.45;;;71.30;;
13999;SDS011;7075;53.574;10.054;2022-10-15T10:58:11;60.50;;;56.83;;
13999;SDS011;7075;53.574;10.054;2022-10-15T11:00:21;65.07;;;60.60;;
13999;SDS011;7075;53.574;10.054;2022-10-15T11:03:00;80.85;;;75.75;;
13999;SDS011;7075;53.574;10.054;2022-10-15T11:05:27;66.20;;;62.05;;
13999;SDS011;7075;53.574;10.054;2022-10-15T11:07:59;77.97;;;72.90;;
13999;SDS011;7075;53.574;10.054;2022-10-15T11:10:31;69.53;;;65.28;;
13999;SDS011;7075;53.574;10.054;2022-10-15T11:15:48;76.57;;;71.72;;
13999;SDS011;7075;53.574;10.054;2022-10-15T11:24:34;77.30;;;72.50;;
13999;SDS011;7075;53.574;10.054;2022-10-15T11:27:19;63.72;;;59.63;;
13999;SDS011;7075;53.574;10.054;2022-10-15T11:30:02;68.90;;;64.55;;
13999;SDS011;7075;53.574;10.054;2022-10-15T11:36:04;72.77;;;68.00;;
13999;SDS011;7075;53.574;10.054;2022-10-15T11:38:16;66.28;;;62.17;;
13999;SDS011;7075;53.574;10.054;2022-10-15T11:41:18;59.80;;;56.05;;
13999;SDS011;7075;53.574;10.054;2022-10-15T11:44:07;55.58;;;52.17;;
13999;SDS011;7075;53.574;10.054;2022-10-15T11:49:31;65.85;;;62.15;;
13999;SDS011;7075;53.574;10.054;2022-10-15T11:55:17;72.97;;;68.72;;
13999;SDS011;7075;53.574;10.054;2022-10-15T11:57:50;79.72;;;75.10;;
13999;SDS011;7075;53.574;10.054;2022-10-15T12:03:14;116.15;;;109.53;;
13999;SDS011;7075;53.574;10.054;2022-10-15T12:05:53;113.63;;;107.10;;
13999;SDS011;7075;53.574;10.054;2022-10-15T12:08:25;119.40;;;112.85;;
13999;SDS011;7075;53.574;10.054;2022-10-15T12:10:57;129.05;;;121.68;;
13999;SDS011;7075;53.574;10.054;2022-10-15T12:13:44;99.82;;;94.22;;
13999;SDS011;7075;53.574;10.054;2022-10-15T12:19:31;118.43;;;111.60;;
13999;SDS011;7075;53.574;10.054;2022-10-15T12:22:11;94.13;;;88.95;;
13999;SDS011;7075;53.574;10.054;2022-10-15T12:29:44;112.28;;;106.00;;
13999;SDS011;7075;53.574;10.054;2022-10-15T12:32:35;110.05;;;103.72;;
13999;SDS011;7075;53.574;10.054;2022-10-15T12:37:39;119.97;;;113.15;;
13999;SDS011;7075;53.574;10.054;2022-10-15T12:42:48;139.55;;;131.63;;
13999;SDS011;7075;53.574;10.054;2022-10-15T12:45:35;161.90;;;152.40;;
13999;SDS011;7075;53.574;10.054;2022-10-15T12:50:37;237.25;;;223.18;;
13999;SDS011;7075;53.574;10.054;2022-10-15T12:58:34;252.45;;;236.63;;
13999;SDS011;7075;53.574;10.054;2022-10-15T13:08:52;240.85;;;226.05;;
13999;SDS011;7075;53.574;10.054;2022-10-15T13:16:36;153.37;;;144.63;;
13999;SDS011;7075;53.574;10.054;2022-10-15T13:19:06;149.68;;;141.15;;
13999;SDS011;7075;53.574;10.054;2022-10-15T13:21:51;148.27;;;139.90;;
13999;SDS011;7075;53.574;10.054;2022-10-15T13:24:22;117.63;;;111.05;;
13999;SDS011;7075;53.574;10.054;2022-10-15T13:26:50;130.35;;;122.95;;
13999;SDS011;7075;53.574;10.054;2022-10-15T13:29:17;121.82;;;115.05;;
13999;SDS011;7075;53.574;10.054;2022-10-15T13:31:45;109.55;;;103.55;;
13999;SDS011;7075;53.574;10.054;2022-10-15T13:36:54;98.90;;;93.20;;
13999;SDS011;7075;53.574;10.054;2022-10-15T13:39:25;91.53;;;86.47;;
13999;SDS011;7075;53.574;10.054;2022-10-15T13:42:02;91.20;;;86.13;;
13999;SDS011;7075;53.574;10.054;2022-10-15T13:44:40;99.82;;;94.50;;
13999;SDS011;7075;53.574;10.054;2022-10-15T13:52:48;97.97;;;92.63;;
13999;SDS011;7075;53.574;10.054;2022-10-15T13:55:37;98.63;;;92.88;;
13999;SDS011;7075;53.574;10.054;2022-10-15T14:00:47;91.72;;;86.35;;
13999;SDS011;7075;53.574;10.054;2022-10-15T14:03:25;96.18;;;90.88;;
13999;SDS011;7075;53.574;10.054;2022-10-15T14:05:52;109.13;;;102.70;;
13999;SDS011;7075;53.574;10.054;2022-10-15T14:08:21;108.50;;;102.22;;
13999;SDS011;7075;53.574;10.054;2022-10-15T14:10:49;104.85;;;98.85;;
13999;SDS011;7075;53.574;10.054;2022-10-15T14:13:17;106.07;;;100.03;;
13999;SDS011;7075;53.574;10.054;2022-10-15T14:15:46;115.65;;;108.78;;
13999;SDS011;7075;53.574;10.054;2022-10-15T14:18:13;112.80;;;106.13;;
13999;SDS011;7075;53.574;10.054;2022-10-15T14:20:45;125.32;;;118.13;;
13999;SDS011;7075;53.574;10.054;2022-10-15T14:23:16;121.07;;;113.88;;
13999;SDS011;7075;53.574;10.054;2022-10-15T14:25:57;118.32;;;111.45;;
13999;SDS011;7075;53.574;10.054;2022-10-15T14:28:25;119.47;;;112.70;;
13999;SDS011;7075;53.574;10.054;2022-10-15T14:30:52;104.90;;;98.85;;
13999;SDS011;7075;53.574;10.054;2022-10-15T14:36:06;97.20;;;91.53;;
13999;SDS011;7075;53.574;10.054;2022-10-15T14:38:35;108.03;;;101.93;;
13999;SDS011;7075;53.574;10.054;2022-10-15T14:41:03;108.72;;;102.55;;
13999;SDS011;7075;53.574;10.054;2022-10-15T14:43:36;98.65;;;92.95;;
13999;SDS011;7075;53.574;10.054;2022-10-15T14:46:06;95.28;;;89.70;;
13999;SDS011;7075;53.574;10.054;2022-10-15T14:48:37;105.57;;;99.47;;
13999;SDS011;7075;53.574;10.054;2022-10-15T14:51:11;99.93;;;94.00;;
13999;SDS011;7075;53.574;10.054;2022-10-15T14:53:43;98.45;;;92.75;;
13999;SDS011;7075;53.574;10.054;2022-10-15T14:56:14;108.22;;;102.05;;
13999;SDS011;7075;53.574;10.054;2022-10-15T14:58:47;95.50;;;90.03;;
13999;SDS011;7075;53.574;10.054;2022-10-15T15:01:17;96.77;;;91.03;;
13999;SDS011;7075;53.574;10.054;2022-10-15T15:03:53;91.75;;;86.35;;
13999;SDS011;7075;53.574;10.054;2022-10-15T15:06:20;95.13;;;89.68;;
13999;SDS011;7075;53.574;10.054;2022-10-15T15:08:45;81.63;;;76.90;;
13999;SDS011;7075;53.574;10.054;2022-10-15T15:11:12;93.97;;;88.50;;
13999;SDS011;7075;53.574;10.054;2022-10-15T15:13:51;85.32;;;80.43;;
13999;SDS011;7075;53.574;10.054;2022-10-15T15:16:18;82.07;;;77.23;;
13999;SDS011;7075;53.574;10.054;2022-10-15T15:18:44;81.07;;;76.30;;
13999;SDS011;7075;53.574;10.054;2022-10-15T15:21:13;84.15;;;79.25;;
13999;SDS011;7075;53.574;10.054;2022-10-15T15:23:41;83.57;;;78.78;;
13999;SDS011;7075;53.574;10.054;2022-10-15T15:26:08;90.38;;;85.15;;
13999;SDS011;7075;53.574;10.054;2022-10-15T15:28:34;78.10;;;73.40;;
13999;SDS011;7075;53.574;10.054;2022-10-15T15:31:01;73.53;;;69.50;;
13999;SDS011;7075;53.574;10.054;2022-10-15T15:33:30;84.47;;;79.30;;
13999;SDS011;7075;53.574;10.054;2022-10-15T15:36:03;79.70;;;75.10;;
13999;SDS011;7075;53.574;10.054;2022-10-15T15:38:33;84.72;;;79.63;;
13999;SDS011;7075;53.574;10.054;2022-10-15T15:41:03;79.53;;;74.82;;
13999;SDS011;7075;53.574;10.054;2022-10-15T15:43:36;72.70;;;68.47;;
13999;SDS011;7075;53.574;10.054;2022-10-15T15:46:02;67.00;;;62.95;;
13999;SDS011;7075;53.574;10.054;2022-10-15T15:48:28;69.47;;;65.35;;
13999;SDS011;7075;53.574;10.054;2022-10-15T15:50:54;70.77;;;66.70;;
13999;SDS011;7075;53.574;10.054;2022-10-15T15:53:23;71.35;;;67.20;;
13999;SDS011;7075;53.574;10.054;2022-10-15T15:55:49;97.22;;;91.53;;
13999;SDS011;7075;53.574;10.054;2022-10-15T15:58:15;110.10;;;103.90;;
13999;SDS011;7075;53.574;10.054;2022-10-15T16:00:40;106.00;;;99.83;;
13999;SDS011;7075;53.574;10.054;2022-10-15T16:03:06;128.25;;;120.90;;
13999;SDS011;7075;53.574;10.054;2022-10-15T16:05:32;123.78;;;116.43;;
13999;SDS011;7075;53.574;10.054;2022-10-15T16:07:58;128.73;;;121.53;;
13999;SDS011;7075;53.574;10.054;2022-10-15T16:10:24;129.50;;;121.97;;
13999;SDS011;7075;53.574;10.054;2022-10-15T16:12:49;128.32;;;121.00;;
13999;SDS011;7075;53.574;10.054;2022-10-15T16:15:15;139.50;;;131.83;;
13999;SDS011;7075;53.574;10.054;2022-10-15T16:17:41;124.70;;;117.57;;